釧路空港の過去48時間の天気

釧路空港 (Kushiro)

現在時刻: 9/23 06:19 JST (9/22 21:19 UTC) 以下の時間は現地時間です。

過去48時間のMETAR気象情報
時間 風向 風速(m/s) 視程 気温(℃) 湿度(%) 気圧(hPa) 天気現象
22 20:00 北北東 3 10km以上 15 88 1021
22 19:00 不定 1 10km以上 15 94 1020
22 18:00 不定 2 10km以上 15 94 1020
22 17:00 南西 2 10km以上 16 88 1019
22 16:00 南南西 3 10km以上 16 88 1019
22 15:00 南南西 4 10km以上 18 77 1018
22 14:00 南南西 4 10km以上 18 73 1018
22 13:00 南南西 4 10km以上 18 73 1019
22 12:00 南南西 4 10km以上 17 77 1019
22 11:00 4 10km以上 16 82 1020
22 10:00 5 10km以上 16 88 1020
22 09:00 不定 1 10km以上 16 88 1020
22 08:00 2 10km以上 15 88 1021
22 07:00 北西 3 10km以上 13 94 1021
22 06:45 北北西 2 10km以上 13 94 1021
RJCK 221100Z 02005KT 360V060 9999 FEW030 BKN/// 15/13 Q1021
RJCK 221000Z VRB02KT 9999 FEW030 BKN/// 15/14 Q1020
RJCK 220900Z VRB04KT 9999 FEW030 BKN/// 15/14 Q1020
RJCK 220800Z 22004KT 9999 FEW030 BKN/// 16/14 Q1019
RJCK 220700Z 20006KT 9999 FEW030 BKN/// 16/14 Q1019
RJCK 220600Z 20008KT 9999 FEW030 BKN/// 18/14 Q1018
RJCK 220500Z 20008KT 9999 FEW030 BKN/// 18/13 Q1018
RJCK 220400Z 21007KT 9999 FEW030 BKN/// 18/13 Q1019
RJCK 220300Z 20007KT 9999 FEW030 BKN/// 17/13 Q1019
RJCK 220200Z 19007KT 9999 FEW030 BKN/// 16/13 Q1020
RJCK 220100Z 19009KT 9999 FEW010 BKN/// 16/14 Q1020
RJCK 220000Z VRB02KT 9999 FEW010 SCT150 BKN/// 16/14 Q1020
RJCK 212300Z 36003KT 330V030 9999 FEW015 SCT150 BKN/// 15/13 Q1021
RJCK 212200Z 32005KT 9999 FEW015 SCT150 BKN/// 13/12 Q1021
RJCK 212145Z 34004KT 310V020 9999 FEW015 SCT150 BKN/// 13/12 Q1021 RMK 1ST015 3AC150 A3016